Terminal Aerodrome Forecast
Issued by NWS

Home | Current Version | Previous Version | Text Only | Print | Product List | Glossary On
Versions: 1 2 3 4 5 6 7 8 9 10 11 12 13 14 15 16 17 18 19 20 21 22
000
FTUS45 KFGZ 010656 AAA
TAFPRC
TAF AMD
KPRC 010656Z 0107/0206 VRB05KT P6SM VCSH BKN060 OVC100
      TEMPO 0107/0109 02020G28KT 4SM -SHRA BR BKN020 OVC030
     FM011200 VRB06KT P6SM VCSH SCT050 BKN100
     FM011800 23010KT P6SM -SHRA BKN040
     FM020200 20004KT P6SM SCT050 SCT100=

USA.gov is the U.S. government's official web portal to all federal, state and local government web resources and services.